sensor_id;sensor_type;location;lat;lon;timestamp;temperature;humidity
65146;DHT22;51730;56.950;24.126;2023-04-10T00:00:12;7.10;99.90
65146;DHT22;51730;56.950;24.126;2023-04-10T00:02:39;7.00;99.90
65146;DHT22;51730;56.950;24.126;2023-04-10T00:05:06;6.90;99.90
65146;DHT22;51730;56.950;24.126;2023-04-10T00:07:35;6.90;99.90
65146;DHT22;51730;56.950;24.126;2023-04-10T00:10:02;6.90;99.90
65146;DHT22;51730;56.950;24.126;2023-04-10T00:12:29;6.90;99.90
65146;DHT22;51730;56.950;24.126;2023-04-10T00:14:56;6.90;99.90
65146;DHT22;51730;56.950;24.126;2023-04-10T00:17:25;7.00;99.90
65146;DHT22;51730;56.950;24.126;2023-04-10T00:19:52;6.90;99.90
65146;DHT22;51730;56.950;24.126;2023-04-10T00:22:19;7.00;99.90
65146;DHT22;51730;56.950;24.126;2023-04-10T00:24:49;7.00;99.90
65146;DHT22;51730;56.950;24.126;2023-04-10T00:27:21;6.90;99.90
65146;DHT22;51730;56.950;24.126;2023-04-10T00:29:47;6.80;99.90
65146;DHT22;51730;56.950;24.126;2023-04-10T00:32:14;6.70;99.90
65146;DHT22;51730;56.950;24.126;2023-04-10T00:34:41;6.80;99.90
65146;DHT22;51730;56.950;24.126;2023-04-10T00:37:08;6.80;99.90
65146;DHT22;51730;56.950;24.126;2023-04-10T00:39:37;6.90;99.90
65146;DHT22;51730;56.950;24.126;2023-04-10T00:42:05;6.90;99.90
65146;DHT22;51730;56.950;24.126;2023-04-10T00:44:34;6.90;99.90
65146;DHT22;51730;56.950;24.126;2023-04-10T00:47:03;6.90;99.90
65146;DHT22;51730;56.950;24.126;2023-04-10T00:49:32;6.90;99.90
65146;DHT22;51730;56.950;24.126;2023-04-10T00:51:59;6.90;99.90
65146;DHT22;51730;56.950;24.126;2023-04-10T00:54:29;6.80;99.90
65146;DHT22;51730;56.950;24.126;2023-04-10T00:56:56;6.80;99.90
65146;DHT22;51730;56.950;24.126;2023-04-10T00:59:26;6.70;99.90
65146;DHT22;51730;56.950;24.126;2023-04-10T01:01:54;6.70;99.90
65146;DHT22;51730;56.950;24.126;2023-04-10T01:04:21;6.60;99.90
65146;DHT22;51730;56.950;24.126;2023-04-10T01:06:52;6.70;99.90
65146;DHT22;51730;56.950;24.126;2023-04-10T01:12:27;6.90;99.90
65146;DHT22;51730;56.950;24.126;2023-04-10T01:17:51;6.90;99.90
65146;DHT22;51730;56.950;24.126;2023-04-10T01:20:22;6.90;99.90
65146;DHT22;51730;56.950;24.126;2023-04-10T01:23:11;6.90;99.90
65146;DHT22;51730;56.950;24.126;2023-04-10T01:30:47;6.90;99.90
65146;DHT22;51730;56.950;24.126;2023-04-10T01:33:17;6.90;99.90
65146;DHT22;51730;56.950;24.126;2023-04-10T01:35:45;6.90;99.90
65146;DHT22;51730;56.950;24.126;2023-04-10T01:38:15;6.90;99.90
65146;DHT22;51730;56.950;24.126;2023-04-10T01:40:44;6.80;99.90
65146;DHT22;51730;56.950;24.126;2023-04-10T01:43:16;6.80;99.90
65146;DHT22;51730;56.950;24.126;2023-04-10T01:45:43;6.70;99.90
65146;DHT22;51730;56.950;24.126;2023-04-10T01:48:12;6.60;99.90
65146;DHT22;51730;56.950;24.126;2023-04-10T01:50:39;6.70;99.90
65146;DHT22;51730;56.950;24.126;2023-04-10T01:53:06;6.60;99.90
65146;DHT22;51730;56.950;24.126;2023-04-10T01:55:33;6.50;99.90
65146;DHT22;51730;56.950;24.126;2023-04-10T01:58:02;6.50;99.90
65146;DHT22;51730;56.950;24.126;2023-04-10T02:00:41;6.60;99.90
65146;DHT22;51730;56.950;24.126;2023-04-10T02:03:09;6.50;99.90
65146;DHT22;51730;56.950;24.126;2023-04-10T02:10:57;6.50;99.90
65146;DHT22;51730;56.950;24.126;2023-04-10T02:13:29;6.50;99.90
65146;DHT22;51730;56.950;24.126;2023-04-10T02:16:01;6.50;99.90
65146;DHT22;51730;56.950;24.126;2023-04-10T02:18:32;6.50;99.90
65146;DHT22;51730;56.950;24.126;2023-04-10T02:21:00;6.50;99.90
65146;DHT22;51730;56.950;24.126;2023-04-10T02:23:27;6.50;99.90
65146;DHT22;51730;56.950;24.126;2023-04-10T02:25:54;6.60;99.90
65146;DHT22;51730;56.950;24.126;2023-04-10T02:28:24;6.60;99.90
65146;DHT22;51730;56.950;24.126;2023-04-10T02:30:51;6.50;99.90
65146;DHT22;51730;56.950;24.126;2023-04-10T02:33:20;6.60;99.90
65146;DHT22;51730;56.950;24.126;2023-04-10T02:35:47;6.60;99.90
65146;DHT22;51730;56.950;24.126;2023-04-10T02:38:14;6.60;99.90
65146;DHT22;51730;56.950;24.126;2023-04-10T02:40:46;6.70;99.90
65146;DHT22;51730;56.950;24.126;2023-04-10T02:43:22;6.70;99.90
65146;DHT22;51730;56.950;24.126;2023-04-10T02:45:49;6.70;99.90
65146;DHT22;51730;56.950;24.126;2023-04-10T02:48:16;6.60;99.90
65146;DHT22;51730;56.950;24.126;2023-04-10T02:50:45;6.60;99.90
65146;DHT22;51730;56.950;24.126;2023-04-10T02:53:14;6.60;99.90
65146;DHT22;51730;56.950;24.126;2023-04-10T02:55:43;6.50;99.90
65146;DHT22;51730;56.950;24.126;2023-04-10T02:58:11;6.60;99.90
65146;DHT22;51730;56.950;24.126;2023-04-10T03:00:40;6.60;99.90
65146;DHT22;51730;56.950;24.126;2023-04-10T03:03:13;6.50;99.90
65146;DHT22;51730;56.950;24.126;2023-04-10T03:05:41;6.60;99.90
65146;DHT22;51730;56.950;24.126;2023-04-10T03:08:08;6.50;99.90
65146;DHT22;51730;56.950;24.126;2023-04-10T03:10:35;6.50;99.90
65146;DHT22;51730;56.950;24.126;2023-04-10T03:13:02;6.50;99.90
65146;DHT22;51730;56.950;24.126;2023-04-10T03:15:30;6.60;99.90
65146;DHT22;51730;56.950;24.126;2023-04-10T03:17:59;6.60;99.90
65146;DHT22;51730;56.950;24.126;2023-04-10T03:20:27;6.50;99.90
65146;DHT22;51730;56.950;24.126;2023-04-10T03:22:54;6.50;99.90
65146;DHT22;51730;56.950;24.126;2023-04-10T03:25:21;6.50;99.90
65146;DHT22;51730;56.950;24.126;2023-04-10T03:27:50;6.60;99.90
65146;DHT22;51730;56.950;24.126;2023-04-10T03:30:17;6.60;99.90
65146;DHT22;51730;56.950;24.126;2023-04-10T03:32:44;6.70;99.90
65146;DHT22;51730;56.950;24.126;2023-04-10T03:35:20;6.70;99.90
65146;DHT22;51730;56.950;24.126;2023-04-10T03:37:50;6.80;99.90
65146;DHT22;51730;56.950;24.126;2023-04-10T03:40:17;6.70;99.90
65146;DHT22;51730;56.950;24.126;2023-04-10T03:42:43;6.70;99.90
65146;DHT22;51730;56.950;24.126;2023-04-10T03:45:13;6.60;99.90
65146;DHT22;51730;56.950;24.126;2023-04-10T03:47:40;6.60;99.90
65146;DHT22;51730;56.950;24.126;2023-04-10T03:50:07;6.60;99.90
65146;DHT22;51730;56.950;24.126;2023-04-10T03:52:36;6.60;99.90
65146;DHT22;51730;56.950;24.126;2023-04-10T03:55:04;6.50;99.90
65146;DHT22;51730;56.950;24.126;2023-04-10T03:57:31;6.60;99.90
65146;DHT22;51730;56.950;24.126;2023-04-10T03:59:59;6.60;99.90
65146;DHT22;51730;56.950;24.126;2023-04-10T04:02:28;6.70;99.90
65146;DHT22;51730;56.950;24.126;2023-04-10T04:04:55;6.60;99.90
65146;DHT22;51730;56.950;24.126;2023-04-10T04:07:22;6.70;99.90
65146;DHT22;51730;56.950;24.126;2023-04-10T04:09:49;6.70;99.90
65146;DHT22;51730;56.950;24.126;2023-04-10T04:12:16;6.70;99.90
65146;DHT22;51730;56.950;24.126;2023-04-10T04:14:43;6.80;99.90
65146;DHT22;51730;56.950;24.126;2023-04-10T04:17:10;6.80;99.90
65146;DHT22;51730;56.950;24.126;2023-04-10T04:19:37;6.90;99.90
65146;DHT22;51730;56.950;24.126;2023-04-10T04:22:04;6.90;99.90
65146;DHT22;51730;56.950;24.126;2023-04-10T04:24:31;6.90;99.90
65146;DHT22;51730;56.950;24.126;2023-04-10T04:26:58;7.00;99.90
65146;DHT22;51730;56.950;24.126;2023-04-10T04:29:24;7.20;99.90
65146;DHT22;51730;56.950;24.126;2023-04-10T04:31:51;7.20;99.90
65146;DHT22;51730;56.950;24.126;2023-04-10T04:34:18;7.20;99.90
65146;DHT22;51730;56.950;24.126;2023-04-10T04:36:45;7.20;99.90
65146;DHT22;51730;56.950;24.126;2023-04-10T04:39:12;7.20;99.90
65146;DHT22;51730;56.950;24.126;2023-04-10T04:41:38;7.30;99.90
65146;DHT22;51730;56.950;24.126;2023-04-10T04:44:05;7.30;99.90
65146;DHT22;51730;56.950;24.126;2023-04-10T04:46:32;7.30;99.90
65146;DHT22;51730;56.950;24.126;2023-04-10T04:48:59;7.40;99.90
65146;DHT22;51730;56.950;24.126;2023-04-10T04:51:26;7.40;99.90
65146;DHT22;51730;56.950;24.126;2023-04-10T04:53:53;7.50;99.90
65146;DHT22;51730;56.950;24.126;2023-04-10T04:56:20;7.60;96.10
65146;DHT22;51730;56.950;24.126;2023-04-10T04:58:46;7.70;98.30
65146;DHT22;51730;56.950;24.126;2023-04-10T05:01:13;7.70;98.30
65146;DHT22;51730;56.950;24.126;2023-04-10T05:03:40;7.80;98.90
65146;DHT22;51730;56.950;24.126;2023-04-10T05:06:07;7.90;98.60
65146;DHT22;51730;56.950;24.126;2023-04-10T05:08:34;7.90;97.80
65146;DHT22;51730;56.950;24.126;2023-04-10T05:11:02;8.00;97.80
65146;DHT22;51730;56.950;24.126;2023-04-10T05:13:29;8.00;96.20
65146;DHT22;51730;56.950;24.126;2023-04-10T05:15:55;8.10;95.90
65146;DHT22;51730;56.950;24.126;2023-04-10T05:18:22;8.10;96.00
65146;DHT22;51730;56.950;24.126;2023-04-10T05:20:49;8.20;91.90
65146;DHT22;51730;56.950;24.126;2023-04-10T05:23:16;8.40;87.40
65146;DHT22;51730;56.950;24.126;2023-04-10T05:25:44;8.40;91.50
65146;DHT22;51730;56.950;24.126;2023-04-10T05:28:14;8.50;87.50
65146;DHT22;51730;56.950;24.126;2023-04-10T05:30:40;8.50;88.30
65146;DHT22;51730;56.950;24.126;2023-04-10T05:33:07;8.30;89.70
65146;DHT22;51730;56.950;24.126;2023-04-10T05:35:34;8.40;93.30
65146;DHT22;51730;56.950;24.126;2023-04-10T05:38:01;8.30;99.50
65146;DHT22;51730;56.950;24.126;2023-04-10T05:40:28;8.00;99.90
65146;DHT22;51730;56.950;24.126;2023-04-10T05:42:54;8.20;99.90
65146;DHT22;51730;56.950;24.126;2023-04-10T05:45:22;8.00;99.90
65146;DHT22;51730;56.950;24.126;2023-04-10T05:47:49;7.80;99.90
65146;DHT22;51730;56.950;24.126;2023-04-10T05:50:16;7.90;99.90
65146;DHT22;51730;56.950;24.126;2023-04-10T05:52:43;8.10;99.90
65146;DHT22;51730;56.950;24.126;2023-04-10T05:55:12;8.30;99.90
65146;DHT22;51730;56.950;24.126;2023-04-10T05:57:39;8.40;98.00
65146;DHT22;51730;56.950;24.126;2023-04-10T06:00:06;8.50;99.40
65146;DHT22;51730;56.950;24.126;2023-04-10T06:02:33;8.50;99.30
65146;DHT22;51730;56.950;24.126;2023-04-10T06:05:13;8.60;97.20
65146;DHT22;51730;56.950;24.126;2023-04-10T06:07:44;8.70;96.70
65146;DHT22;51730;56.950;24.126;2023-04-10T06:10:12;8.70;96.10
65146;DHT22;51730;56.950;24.126;2023-04-10T06:12:40;8.80;96.20
65146;DHT22;51730;56.950;24.126;2023-04-10T06:15:07;8.80;94.20
65146;DHT22;51730;56.950;24.126;2023-04-10T06:17:34;8.80;94.60
65146;DHT22;51730;56.950;24.126;2023-04-10T06:20:07;8.90;93.80
65146;DHT22;51730;56.950;24.126;2023-04-10T06:22:34;9.00;92.50
65146;DHT22;51730;56.950;24.126;2023-04-10T06:25:01;9.10;93.20
65146;DHT22;51730;56.950;24.126;2023-04-10T06:27:28;9.30;91.10
65146;DHT22;51730;56.950;24.126;2023-04-10T06:29:55;9.50;88.10
65146;DHT22;51730;56.950;24.126;2023-04-10T06:32:21;9.70;83.00
65146;DHT22;51730;56.950;24.126;2023-04-10T06:34:48;9.80;82.20
65146;DHT22;51730;56.950;24.126;2023-04-10T06:37:15;9.90;81.10
65146;DHT22;51730;56.950;24.126;2023-04-10T06:39:42;10.00;77.90
65146;DHT22;51730;56.950;24.126;2023-04-10T06:42:11;9.90;80.20
65146;DHT22;51730;56.950;24.126;2023-04-10T06:44:38;9.90;81.20
65146;DHT22;51730;56.950;24.126;2023-04-10T06:47:05;9.90;80.30
65146;DHT22;51730;56.950;24.126;2023-04-10T06:49:32;10.00;80.50
65146;DHT22;51730;56.950;24.126;2023-04-10T06:51:59;10.10;78.20
65146;DHT22;51730;56.950;24.126;2023-04-10T06:54:26;10.00;77.60
65146;DHT22;51730;56.950;24.126;2023-04-10T06:56:56;10.10;77.80
65146;DHT22;51730;56.950;24.126;2023-04-10T06:59:24;10.10;77.30
65146;DHT22;51730;56.950;24.126;2023-04-10T07:02:08;10.10;80.30
65146;DHT22;51730;56.950;24.126;2023-04-10T07:04:36;10.30;81.70
65146;DHT22;51730;56.950;24.126;2023-04-10T07:07:10;10.30;82.00
65146;DHT22;51730;56.950;24.126;2023-04-10T07:09:41;10.30;82.60
65146;DHT22;51730;56.950;24.126;2023-04-10T07:12:09;10.30;83.40
65146;DHT22;51730;56.950;24.126;2023-04-10T07:14:36;10.40;83.30
65146;DHT22;51730;56.950;24.126;2023-04-10T07:17:03;10.40;83.70
65146;DHT22;51730;56.950;24.126;2023-04-10T07:19:32;10.50;82.20
65146;DHT22;51730;56.950;24.126;2023-04-10T07:21:59;10.60;81.10
65146;DHT22;51730;56.950;24.126;2023-04-10T07:24:27;10.60;80.70
65146;DHT22;51730;56.950;24.126;2023-04-10T07:26:54;10.70;80.50
65146;DHT22;51730;56.950;24.126;2023-04-10T07:29:22;10.80;78.90
65146;DHT22;51730;56.950;24.126;2023-04-10T07:31:49;10.90;77.40
65146;DHT22;51730;56.950;24.126;2023-04-10T07:34:16;10.90;75.90
65146;DHT22;51730;56.950;24.126;2023-04-10T07:36:43;11.00;75.00
65146;DHT22;51730;56.950;24.126;2023-04-10T07:39:11;11.00;74.70
65146;DHT22;51730;56.950;24.126;2023-04-10T07:41:38;11.10;73.60
65146;DHT22;51730;56.950;24.126;2023-04-10T07:44:05;11.30;71.30
65146;DHT22;51730;56.950;24.126;2023-04-10T07:46:33;11.40;70.30
65146;DHT22;51730;56.950;24.126;2023-04-10T07:49:00;11.50;67.40
65146;DHT22;51730;56.950;24.126;2023-04-10T07:51:27;11.60;67.60
65146;DHT22;51730;56.950;24.126;2023-04-10T07:53:54;11.80;65.70
65146;DHT22;51730;56.950;24.126;2023-04-10T07:56:21;11.70;66.10
65146;DHT22;51730;56.950;24.126;2023-04-10T07:58:49;11.50;66.60
65146;DHT22;51730;56.950;24.126;2023-04-10T08:01:16;11.70;66.00
65146;DHT22;51730;56.950;24.126;2023-04-10T08:03:44;11.90;64.50
65146;DHT22;51730;56.950;24.126;2023-04-10T08:06:11;11.90;64.20
65146;DHT22;51730;56.950;24.126;2023-04-10T08:08:39;12.20;60.80
65146;DHT22;51730;56.950;24.126;2023-04-10T08:11:07;12.50;58.90
65146;DHT22;51730;56.950;24.126;2023-04-10T08:13:34;12.50;58.60
65146;DHT22;51730;56.950;24.126;2023-04-10T08:16:01;12.40;58.60
65146;DHT22;51730;56.950;24.126;2023-04-10T08:18:28;12.50;56.90
65146;DHT22;51730;56.950;24.126;2023-04-10T08:20:55;12.30;58.00
65146;DHT22;51730;56.950;24.126;2023-04-10T08:23:21;12.40;58.70
65146;DHT22;51730;56.950;24.126;2023-04-10T08:25:48;12.60;58.40
65146;DHT22;51730;56.950;24.126;2023-04-10T08:28:15;12.90;56.90
65146;DHT22;51730;56.950;24.126;2023-04-10T08:30:42;12.70;57.60
65146;DHT22;51730;56.950;24.126;2023-04-10T08:33:09;12.80;57.70
65146;DHT22;51730;56.950;24.126;2023-04-10T08:35:35;13.10;59.50
65146;DHT22;51730;56.950;24.126;2023-04-10T08:38:02;13.30;59.30
65146;DHT22;51730;56.950;24.126;2023-04-10T08:40:39;13.30;60.00
65146;DHT22;51730;56.950;24.126;2023-04-10T08:43:06;13.20;59.90
65146;DHT22;51730;56.950;24.126;2023-04-10T08:45:33;13.30;59.40
65146;DHT22;51730;56.950;24.126;2023-04-10T08:48:01;13.30;59.00
65146;DHT22;51730;56.950;24.126;2023-04-10T08:50:30;13.40;58.80
65146;DHT22;51730;56.950;24.126;2023-04-10T08:52:59;13.50;57.50
65146;DHT22;51730;56.950;24.126;2023-04-10T08:55:28;13.50;57.50
65146;DHT22;51730;56.950;24.126;2023-04-10T08:57:55;13.60;56.80
65146;DHT22;51730;56.950;24.126;2023-04-10T09:00:27;13.60;56.80
65146;DHT22;51730;56.950;24.126;2023-04-10T09:02:54;13.40;57.00
65146;DHT22;51730;56.950;24.126;2023-04-10T09:05:24;13.60;55.80
65146;DHT22;51730;56.950;24.126;2023-04-10T09:07:52;13.80;54.70
65146;DHT22;51730;56.950;24.126;2023-04-10T09:10:19;14.10;54.30
65146;DHT22;51730;56.950;24.126;2023-04-10T09:12:46;13.90;54.00
65146;DHT22;51730;56.950;24.126;2023-04-10T09:15:13;14.00;54.10
65146;DHT22;51730;56.950;24.126;2023-04-10T09:17:54;14.20;53.50
65146;DHT22;51730;56.950;24.126;2023-04-10T09:20:21;13.90;54.20
65146;DHT22;51730;56.950;24.126;2023-04-10T09:22:48;14.10;53.40
65146;DHT22;51730;56.950;24.126;2023-04-10T09:25:31;14.10;52.70
65146;DHT22;51730;56.950;24.126;2023-04-10T09:27:58;14.20;52.70
65146;DHT22;51730;56.950;24.126;2023-04-10T09:30:36;14.10;53.00
65146;DHT22;51730;56.950;24.126;2023-04-10T09:33:19;14.20;52.70
65146;DHT22;51730;56.950;24.126;2023-04-10T09:35:46;14.30;52.30
65146;DHT22;51730;56.950;24.126;2023-04-10T09:38:13;14.30;51.80
65146;DHT22;51730;56.950;24.126;2023-04-10T09:40:41;14.30;51.60
65146;DHT22;51730;56.950;24.126;2023-04-10T09:43:22;14.20;51.80
65146;DHT22;51730;56.950;24.126;2023-04-10T09:45:52;14.30;52.10
65146;DHT22;51730;56.950;24.126;2023-04-10T09:48:20;14.40;51.60
65146;DHT22;51730;56.950;24.126;2023-04-10T09:50:47;14.50;51.10
65146;DHT22;51730;56.950;24.126;2023-04-10T09:53:15;14.60;50.90
65146;DHT22;51730;56.950;24.126;2023-04-10T09:55:42;14.60;51.10
65146;DHT22;51730;56.950;24.126;2023-04-10T09:58:10;14.60;50.90
65146;DHT22;51730;56.950;24.126;2023-04-10T10:00:40;14.60;50.70
65146;DHT22;51730;56.950;24.126;2023-04-10T10:03:10;14.60;50.50
65146;DHT22;51730;56.950;24.126;2023-04-10T10:05:41;14.50;50.70
65146;DHT22;51730;56.950;24.126;2023-04-10T10:08:09;14.50;50.80
65146;DHT22;51730;56.950;24.126;2023-04-10T10:10:37;14.60;50.30
65146;DHT22;51730;56.950;24.126;2023-04-10T10:13:05;14.70;50.10
65146;DHT22;51730;56.950;24.126;2023-04-10T10:15:35;14.50;50.20
65146;DHT22;51730;56.950;24.126;2023-04-10T10:18:06;14.70;49.40
65146;DHT22;51730;56.950;24.126;2023-04-10T10:20:36;14.60;49.40
65146;DHT22;51730;56.950;24.126;2023-04-10T10:23:05;14.70;48.70
65146;DHT22;51730;56.950;24.126;2023-04-10T10:25:35;14.70;48.90
65146;DHT22;51730;56.950;24.126;2023-04-10T10:28:03;14.60;48.60
65146;DHT22;51730;56.950;24.126;2023-04-10T10:30:33;14.60;48.20
65146;DHT22;51730;56.950;24.126;2023-04-10T10:33:01;14.50;48.60
65146;DHT22;51730;56.950;24.126;2023-04-10T10:35:31;14.50;48.70
65146;DHT22;51730;56.950;24.126;2023-04-10T10:37:59;14.50;48.80
65146;DHT22;51730;56.950;24.126;2023-04-10T10:40:28;14.60;48.30
65146;DHT22;51730;56.950;24.126;2023-04-10T10:45:30;14.50;48.00
65146;DHT22;51730;56.950;24.126;2023-04-10T10:47:58;14.60;48.30
65146;DHT22;51730;56.950;24.126;2023-04-10T10:50:43;14.50;48.30
65146;DHT22;51730;56.950;24.126;2023-04-10T10:53:29;14.50;48.10
65146;DHT22;51730;56.950;24.126;2023-04-10T10:55:57;14.60;47.80
65146;DHT22;51730;56.950;24.126;2023-04-10T11:01:10;14.50;48.50
65146;DHT22;51730;56.950;24.126;2023-04-10T11:03:37;14.60;48.40
65146;DHT22;51730;56.950;24.126;2023-04-10T11:06:08;14.50;48.40
65146;DHT22;51730;56.950;24.126;2023-04-10T11:08:36;14.50;48.60
65146;DHT22;51730;56.950;24.126;2023-04-10T11:11:20;14.40;48.60
65146;DHT22;51730;56.950;24.126;2023-04-10T11:19:03;14.60;47.20
65146;DHT22;51730;56.950;24.126;2023-04-10T11:24:25;14.70;47.40
65146;DHT22;51730;56.950;24.126;2023-04-10T11:26:52;14.60;47.20
65146;DHT22;51730;56.950;24.126;2023-04-10T11:31:46;14.80;47.30
65146;DHT22;51730;56.950;24.126;2023-04-10T11:34:13;14.90;46.90
65146;DHT22;51730;56.950;24.126;2023-04-10T11:36:43;14.90;46.70
65146;DHT22;51730;56.950;24.126;2023-04-10T11:39:11;14.80;46.70
65146;DHT22;51730;56.950;24.126;2023-04-10T11:41:46;14.80;46.70
65146;DHT22;51730;56.950;24.126;2023-04-10T11:44:34;14.80;46.80
65146;DHT22;51730;56.950;24.126;2023-04-10T11:47:11;14.80;46.60
65146;DHT22;51730;56.950;24.126;2023-04-10T11:49:37;14.80;46.60
65146;DHT22;51730;56.950;24.126;2023-04-10T11:52:04;14.70;46.30
65146;DHT22;51730;56.950;24.126;2023-04-10T11:54:31;14.80;46.50
65146;DHT22;51730;56.950;24.126;2023-04-10T11:57:00;14.80;46.40
65146;DHT22;51730;56.950;24.126;2023-04-10T11:59:28;14.80;46.70
65146;DHT22;51730;56.950;24.126;2023-04-10T12:02:04;14.80;46.80
65146;DHT22;51730;56.950;24.126;2023-04-10T12:04:32;14.80;46.90
65146;DHT22;51730;56.950;24.126;2023-04-10T12:06:59;14.90;47.30
65146;DHT22;51730;56.950;24.126;2023-04-10T12:09:26;14.90;47.40
65146;DHT22;51730;56.950;24.126;2023-04-10T12:11:54;15.00;48.40
65146;DHT22;51730;56.950;24.126;2023-04-10T12:14:22;15.00;48.20
65146;DHT22;51730;56.950;24.126;2023-04-10T12:16:49;15.00;48.30
65146;DHT22;51730;56.950;24.126;2023-04-10T12:19:17;15.10;48.50
65146;DHT22;51730;56.950;24.126;2023-04-10T12:21:44;15.00;48.70
65146;DHT22;51730;56.950;24.126;2023-04-10T12:24:12;15.10;48.60
65146;DHT22;51730;56.950;24.126;2023-04-10T12:26:45;15.10;48.70
65146;DHT22;51730;56.950;24.126;2023-04-10T12:29:12;15.00;49.40
65146;DHT22;51730;56.950;24.126;2023-04-10T12:31:39;15.00;49.30
65146;DHT22;51730;56.950;24.126;2023-04-10T12:34:06;14.70;49.70
65146;DHT22;51730;56.950;24.126;2023-04-10T12:36:36;14.80;49.70
65146;DHT22;51730;56.950;24.126;2023-04-10T12:39:04;14.90;49.50
65146;DHT22;51730;56.950;24.126;2023-04-10T12:41:32;14.90;49.20
65146;DHT22;51730;56.950;24.126;2023-04-10T12:44:12;15.00;48.90
65146;DHT22;51730;56.950;24.126;2023-04-10T12:46:40;15.00;49.00
65146;DHT22;51730;56.950;24.126;2023-04-10T12:49:11;15.00;48.90
65146;DHT22;51730;56.950;24.126;2023-04-10T12:54:08;15.10;49.00
65146;DHT22;51730;56.950;24.126;2023-04-10T12:56:42;15.00;48.90
65146;DHT22;51730;56.950;24.126;2023-04-10T12:59:09;15.10;49.00
65146;DHT22;51730;56.950;24.126;2023-04-10T13:01:37;15.10;48.40
65146;DHT22;51730;56.950;24.126;2023-04-10T13:04:04;15.20;48.40
65146;DHT22;51730;56.950;24.126;2023-04-10T13:06:31;15.10;48.10
65146;DHT22;51730;56.950;24.126;2023-04-10T13:08:58;15.20;47.90
65146;DHT22;51730;56.950;24.126;2023-04-10T13:11:25;15.20;47.50
65146;DHT22;51730;56.950;24.126;2023-04-10T13:13:52;15.20;47.70
65146;DHT22;51730;56.950;24.126;2023-04-10T13:16:18;15.20;47.40
65146;DHT22;51730;56.950;24.126;2023-04-10T13:18:45;15.20;47.50
65146;DHT22;51730;56.950;24.126;2023-04-10T13:21:12;15.20;47.50
65146;DHT22;51730;56.950;24.126;2023-04-10T13:23:43;15.30;47.10
65146;DHT22;51730;56.950;24.126;2023-04-10T13:26:12;15.40;46.60
65146;DHT22;51730;56.950;24.126;2023-04-10T13:28:39;15.30;46.60
65146;DHT22;51730;56.950;24.126;2023-04-10T13:31:06;15.20;46.80
65146;DHT22;51730;56.950;24.126;2023-04-10T13:33:33;15.30;46.60
65146;DHT22;51730;56.950;24.126;2023-04-10T13:35:59;15.20;47.30
65146;DHT22;51730;56.950;24.126;2023-04-10T13:38:26;15.00;47.60
65146;DHT22;51730;56.950;24.126;2023-04-10T13:40:53;15.00;47.90
65146;DHT22;51730;56.950;24.126;2023-04-10T13:43:20;14.80;48.10
65146;DHT22;51730;56.950;24.126;2023-04-10T13:45:47;15.00;47.80
65146;DHT22;51730;56.950;24.126;2023-04-10T13:48:15;15.00;48.40
65146;DHT22;51730;56.950;24.126;2023-04-10T13:50:52;14.90;48.80
65146;DHT22;51730;56.950;24.126;2023-04-10T13:53:19;14.90;49.10
65146;DHT22;51730;56.950;24.126;2023-04-10T13:55:46;15.00;48.90
65146;DHT22;51730;56.950;24.126;2023-04-10T13:58:14;15.00;49.10
65146;DHT22;51730;56.950;24.126;2023-04-10T14:00:41;14.90;49.40
65146;DHT22;51730;56.950;24.126;2023-04-10T14:03:09;15.00;49.10
65146;DHT22;51730;56.950;24.126;2023-04-10T14:05:38;14.90;49.40
65146;DHT22;51730;56.950;24.126;2023-04-10T14:08:04;14.90;49.40
65146;DHT22;51730;56.950;24.126;2023-04-10T14:10:31;15.10;49.30
65146;DHT22;51730;56.950;24.126;2023-04-10T14:12:58;15.00;49.30
65146;DHT22;51730;56.950;24.126;2023-04-10T14:15:25;14.90;49.80
65146;DHT22;51730;56.950;24.126;2023-04-10T14:17:53;15.00;50.00
65146;DHT22;51730;56.950;24.126;2023-04-10T14:20:20;14.90;50.20
65146;DHT22;51730;56.950;24.126;2023-04-10T14:22:47;14.90;50.30
65146;DHT22;51730;56.950;24.126;2023-04-10T14:25:14;14.80;50.40
65146;DHT22;51730;56.950;24.126;2023-04-10T14:27:41;14.80;50.60
65146;DHT22;51730;56.950;24.126;2023-04-10T14:30:08;14.70;50.60
65146;DHT22;51730;56.950;24.126;2023-04-10T14:32:37;14.70;50.60
65146;DHT22;51730;56.950;24.126;2023-04-10T14:35:04;14.60;50.90
65146;DHT22;51730;56.950;24.126;2023-04-10T14:37:31;14.70;51.10
65146;DHT22;51730;56.950;24.126;2023-04-10T14:39:58;14.60;51.00
65146;DHT22;51730;56.950;24.126;2023-04-10T14:42:24;14.50;51.20
65146;DHT22;51730;56.950;24.126;2023-04-10T14:44:52;14.60;50.60
65146;DHT22;51730;56.950;24.126;2023-04-10T14:47:19;14.60;51.30
65146;DHT22;51730;56.950;24.126;2023-04-10T14:49:48;14.60;50.60
65146;DHT22;51730;56.950;24.126;2023-04-10T14:52:16;14.30;51.00
65146;DHT22;51730;56.950;24.126;2023-04-10T14:54:47;14.50;50.80
65146;DHT22;51730;56.950;24.126;2023-04-10T14:57:17;14.60;50.90
65146;DHT22;51730;56.950;24.126;2023-04-10T14:59:47;14.60;50.40
65146;DHT22;51730;56.950;24.126;2023-04-10T15:02:18;14.60;50.20
65146;DHT22;51730;56.950;24.126;2023-04-10T15:05:07;14.60;50.20
65146;DHT22;51730;56.950;24.126;2023-04-10T15:07:47;14.70;50.10
65146;DHT22;51730;56.950;24.126;2023-04-10T15:10:20;14.90;49.40
65146;DHT22;51730;56.950;24.126;2023-04-10T15:12:58;14.70;49.20
65146;DHT22;51730;56.950;24.126;2023-04-10T15:15:43;14.60;49.30
65146;DHT22;51730;56.950;24.126;2023-04-10T15:18:20;14.50;49.90
65146;DHT22;51730;56.950;24.126;2023-04-10T15:21:13;14.30;49.60
65146;DHT22;51730;56.950;24.126;2023-04-10T15:23:40;14.40;49.50
65146;DHT22;51730;56.950;24.126;2023-04-10T15:26:12;14.40;49.10
65146;DHT22;51730;56.950;24.126;2023-04-10T15:28:41;14.10;49.60
65146;DHT22;51730;56.950;24.126;2023-04-10T15:31:11;14.00;50.20
65146;DHT22;51730;56.950;24.126;2023-04-10T15:33:38;13.90;50.40
65146;DHT22;51730;56.950;24.126;2023-04-10T15:36:05;13.90;50.60
65146;DHT22;51730;56.950;24.126;2023-04-10T15:38:33;13.80;50.50
65146;DHT22;51730;56.950;24.126;2023-04-10T15:41:03;13.80;50.90
65146;DHT22;51730;56.950;24.126;2023-04-10T15:43:33;13.80;51.00
65146;DHT22;51730;56.950;24.126;2023-04-10T15:46:00;14.10;50.30
65146;DHT22;51730;56.950;24.126;2023-04-10T15:48:27;14.30;49.80
65146;DHT22;51730;56.950;24.126;2023-04-10T15:50:54;14.30;49.50
65146;DHT22;51730;56.950;24.126;2023-04-10T15:53:21;14.40;49.30
65146;DHT22;51730;56.950;24.126;2023-04-10T15:55:48;14.30;49.10
65146;DHT22;51730;56.950;24.126;2023-04-10T15:58:17;14.10;49.80
65146;DHT22;51730;56.950;24.126;2023-04-10T16:00:49;13.70;50.60
65146;DHT22;51730;56.950;24.126;2023-04-10T16:03:17;13.40;51.70
65146;DHT22;51730;56.950;24.126;2023-04-10T16:05:44;13.40;52.20